createdAt,value
2022-09-03T00:00:46.871Z,15.04
2022-09-03T00:01:46.915Z,15.03
2022-09-03T00:02:46.869Z,15.01
2022-09-03T00:03:46.807Z,15.05
2022-09-03T00:04:46.966Z,15.05
2022-09-03T00:05:47.017Z,15.04
2022-09-03T00:06:46.732Z,15.05
2022-09-03T00:07:46.780Z,15.07
2022-09-03T00:08:46.703Z,15.03
2022-09-03T00:09:46.715Z,15.03
2022-09-03T00:10:46.751Z,15.00
2022-09-03T00:11:46.699Z,14.97
2022-09-03T00:12:46.669Z,14.95
2022-09-03T00:13:46.666Z,14.97
2022-09-03T00:14:46.661Z,14.94
2022-09-03T00:15:46.679Z,14.94
2022-09-03T00:16:46.785Z,14.93
2022-09-03T00:17:46.660Z,14.90
2022-09-03T00:18:47.150Z,14.87
2022-09-03T00:19:46.611Z,14.86
2022-09-03T00:20:46.587Z,14.83
2022-09-03T00:21:46.594Z,14.83
2022-09-03T00:22:46.572Z,14.82
2022-09-03T00:23:46.555Z,14.80
2022-09-03T00:24:46.775Z,14.79
2022-09-03T00:25:46.536Z,14.75
2022-09-03T00:26:46.523Z,14.78
2022-09-03T00:27:46.533Z,14.79
2022-09-03T00:28:46.531Z,14.75
2022-09-03T00:29:46.505Z,14.72
2022-09-03T00:30:46.520Z,14.75
2022-09-03T00:31:46.470Z,14.72
2022-09-03T00:32:46.488Z,14.74
2022-09-03T00:33:46.442Z,14.74
2022-09-03T00:34:46.484Z,14.72
2022-09-03T00:35:46.429Z,14.78
2022-09-03T00:36:46.428Z,14.78
2022-09-03T00:37:46.471Z,14.78
2022-09-03T00:38:46.407Z,14.79
2022-09-03T00:39:46.479Z,14.79
2022-09-03T00:40:46.381Z,14.74
2022-09-03T00:41:46.389Z,14.74
2022-09-03T00:42:46.359Z,14.75
2022-09-03T00:43:46.342Z,14.74
2022-09-03T00:44:46.350Z,14.74
2022-09-03T00:45:46.326Z,14.72
2022-09-03T00:46:46.404Z,14.71
2022-09-03T00:47:46.326Z,14.67
2022-09-03T00:48:46.292Z,14.66
2022-09-03T00:49:46.340Z,14.64
2022-09-03T00:50:46.291Z,14.63
2022-09-03T00:51:46.295Z,14.64
2022-09-03T00:52:46.252Z,14.63
2022-09-03T00:53:46.239Z,14.64
2022-09-03T00:54:46.242Z,14.64
2022-09-03T00:55:46.287Z,14.64
2022-09-03T00:56:46.213Z,14.63
2022-09-03T00:57:47.717Z,14.61
2022-09-03T00:58:46.199Z,14.59
2022-09-03T00:59:46.185Z,14.57
2022-09-03T01:00:46.174Z,14.54
2022-09-03T01:01:46.283Z,14.56
2022-09-03T01:02:46.302Z,14.53
2022-09-03T01:03:46.152Z,14.49
2022-09-03T01:04:46.144Z,14.49
2022-09-03T01:05:46.137Z,14.46
2022-09-03T01:06:46.102Z,14.45
2022-09-03T01:07:46.089Z,14.44
2022-09-03T01:08:49.201Z,14.44
2022-09-03T01:09:46.085Z,14.44
2022-09-03T01:10:46.106Z,14.42
2022-09-03T01:11:46.057Z,14.41
2022-09-03T01:12:46.045Z,14.45
2022-09-03T01:13:46.055Z,14.42
2022-09-03T01:14:46.101Z,14.41
2022-09-03T01:15:46.067Z,14.42
2022-09-03T01:16:46.018Z,14.39
2022-09-03T01:17:45.985Z,14.41
2022-09-03T01:18:45.994Z,14.41
2022-09-03T01:19:45.996Z,14.39
2022-09-03T01:20:45.971Z,14.41
2022-09-03T01:21:45.986Z,14.38
2022-09-03T01:22:45.939Z,14.36
2022-09-03T01:23:45.949Z,14.36
2022-09-03T01:24:45.927Z,14.36
2022-09-03T01:25:45.920Z,14.36
2022-09-03T01:26:45.909Z,14.36
2022-09-03T01:27:45.964Z,14.34
2022-09-03T01:28:45.954Z,14.31
2022-09-03T01:29:45.873Z,14.29
2022-09-03T01:30:45.938Z,14.29
2022-09-03T01:31:45.843Z,14.31
2022-09-03T01:32:45.874Z,14.27
2022-09-03T01:33:45.824Z,14.26
2022-09-03T01:34:45.830Z,14.23
2022-09-03T01:35:45.801Z,14.21
2022-09-03T01:36:45.796Z,14.19
2022-09-03T01:37:45.776Z,14.17
2022-09-03T01:38:45.783Z,14.19
2022-09-03T01:39:45.817Z,14.16
2022-09-03T01:40:45.771Z,14.17
2022-09-03T01:41:45.735Z,14.19
2022-09-03T01:42:45.731Z,14.19
2022-09-03T01:43:45.725Z,14.17
2022-09-03T01:44:45.714Z,14.19
2022-09-03T01:45:51.246Z,14.20
2022-09-03T01:46:45.873Z,14.20
2022-09-03T01:47:45.670Z,14.23
2022-09-03T01:48:45.779Z,14.26
2022-09-03T01:49:45.661Z,14.27
2022-09-03T01:50:45.655Z,14.29
2022-09-03T01:51:45.709Z,14.29
2022-09-03T01:52:45.629Z,14.27
2022-09-03T01:53:45.641Z,14.27
2022-09-03T01:54:45.620Z,14.24
2022-09-03T01:55:45.590Z,14.26
2022-09-03T01:56:45.586Z,14.24
2022-09-03T01:57:45.643Z,14.21
2022-09-03T01:58:45.636Z,14.21
2022-09-03T01:59:45.674Z,14.21
2022-09-03T02:00:45.597Z,14.24
2022-09-03T02:01:45.786Z,14.23
2022-09-03T02:02:45.707Z,14.20
2022-09-03T02:03:45.678Z,14.19
2022-09-03T02:04:45.500Z,14.19
2022-09-03T02:05:45.483Z,14.09
2022-09-03T02:06:45.487Z,14.05
2022-09-03T02:07:45.563Z,14.01
2022-09-03T02:08:45.635Z,13.98
2022-09-03T02:09:45.456Z,13.96
2022-09-03T02:10:45.478Z,13.93
2022-09-03T02:11:45.415Z,13.93
2022-09-03T02:12:45.418Z,13.93
2022-09-03T02:13:45.651Z,13.91
2022-09-03T02:14:45.407Z,13.93
2022-09-03T02:15:45.451Z,13.90
2022-09-03T02:16:45.465Z,13.90
2022-09-03T02:17:45.361Z,13.88
2022-09-03T02:18:45.363Z,13.84
2022-09-03T02:19:45.347Z,13.79
2022-09-03T02:20:45.603Z,13.72
2022-09-03T02:21:45.667Z,13.72
2022-09-03T02:22:45.628Z,13.69
2022-09-03T02:23:45.619Z,13.66
2022-09-03T02:24:45.603Z,13.68
2022-09-03T02:25:45.299Z,13.63
2022-09-03T02:26:45.279Z,13.65
2022-09-03T02:27:45.577Z,13.61
2022-09-03T02:28:45.571Z,13.61
2022-09-03T02:29:45.594Z,13.59
2022-09-03T02:30:45.636Z,13.62
2022-09-03T02:31:45.212Z,13.61
2022-09-03T02:32:45.221Z,13.55
2022-09-03T02:33:45.640Z,13.53
2022-09-03T02:34:45.198Z,13.48
2022-09-03T02:35:45.189Z,13.44
2022-09-03T02:36:45.169Z,13.47
2022-09-03T02:37:45.157Z,13.48
2022-09-03T02:38:45.167Z,13.44
2022-09-03T02:39:45.236Z,13.46
2022-09-03T02:40:45.122Z,13.41
2022-09-03T02:41:45.114Z,13.44
2022-09-03T02:42:45.105Z,13.43
2022-09-03T02:43:45.111Z,13.41
2022-09-03T02:44:45.117Z,13.38
2022-09-03T02:45:45.172Z,13.41
2022-09-03T02:46:45.080Z,13.38
2022-09-03T02:47:45.055Z,13.39
2022-09-03T02:48:45.076Z,13.38
2022-09-03T02:49:45.022Z,13.39
2022-09-03T02:50:45.019Z,13.39
2022-09-03T02:51:45.013Z,13.41
2022-09-03T02:52:44.996Z,13.44
2022-09-03T02:53:45.060Z,13.47
2022-09-03T02:54:45.066Z,13.47
2022-09-03T02:55:45.022Z,13.48
2022-09-03T02:56:44.963Z,13.50
2022-09-03T02:57:44.965Z,13.50
2022-09-03T02:58:45.034Z,13.48
2022-09-03T02:59:44.920Z,13.51
2022-09-03T03:00:44.969Z,13.47
2022-09-03T03:01:46.566Z,13.48
2022-09-03T03:02:45.154Z,13.47
2022-09-03T03:03:44.882Z,13.44
2022-09-03T03:04:44.924Z,13.36
2022-09-03T03:05:44.864Z,13.35
2022-09-03T03:06:47.773Z,13.32
2022-09-03T03:07:44.859Z,13.32
2022-09-03T03:08:44.984Z,13.29
2022-09-03T03:09:44.984Z,13.28
2022-09-03T03:10:44.812Z,13.29
2022-09-03T03:11:44.934Z,13.28
2022-09-03T03:12:44.809Z,13.31
2022-09-03T03:13:44.775Z,13.29
2022-09-03T03:14:45.007Z,13.27
2022-09-03T03:15:44.765Z,13.25
2022-09-03T03:16:45.162Z,13.25
2022-09-03T03:17:44.751Z,13.24
2022-09-03T03:18:44.734Z,13.24
2022-09-03T03:19:44.721Z,13.24
2022-09-03T03:20:45.687Z,13.24
2022-09-03T03:21:44.849Z,13.24
2022-09-03T03:22:44.800Z,13.25
2022-09-03T03:23:44.878Z,13.25
2022-09-03T03:24:44.841Z,13.21
2022-09-03T03:25:44.660Z,13.16
2022-09-03T03:26:44.652Z,13.17
2022-09-03T03:27:44.746Z,13.17
2022-09-03T03:28:44.674Z,13.17
2022-09-03T03:29:44.733Z,13.21
2022-09-03T03:30:44.751Z,13.19
2022-09-03T03:31:44.581Z,13.22
2022-09-03T03:32:44.581Z,13.22
2022-09-03T03:33:44.577Z,13.22
2022-09-03T03:34:44.584Z,13.27
2022-09-03T03:35:44.552Z,13.27
2022-09-03T03:36:44.547Z,13.28
2022-09-03T03:37:44.561Z,13.27
2022-09-03T03:38:44.551Z,13.28
2022-09-03T03:39:44.563Z,13.29
2022-09-03T03:40:44.520Z,13.29
2022-09-03T03:41:44.490Z,13.31
2022-09-03T03:42:44.485Z,13.29
2022-09-03T03:43:44.566Z,13.28
2022-09-03T03:44:44.457Z,13.29
2022-09-03T03:45:44.482Z,13.28
2022-09-03T03:46:44.460Z,13.25
2022-09-03T03:47:44.438Z,13.25
2022-09-03T03:48:44.412Z,13.21
2022-09-03T03:49:44.401Z,13.19
2022-09-03T03:50:44.346Z,13.19
2022-09-03T03:51:44.389Z,13.16
2022-09-03T03:52:44.385Z,13.17
2022-09-03T03:53:44.361Z,13.16
2022-09-03T03:54:44.376Z,13.21
2022-09-03T03:55:44.340Z,13.21
2022-09-03T03:56:44.326Z,13.19
2022-09-03T03:57:44.270Z,13.17
2022-09-03T03:58:44.383Z,13.14
2022-09-03T03:59:44.256Z,13.14
2022-09-03T04:00:44.231Z,13.14
2022-09-03T04:01:44.274Z,13.12
2022-09-03T04:02:44.309Z,13.07
2022-09-03T04:03:44.206Z,13.09
2022-09-03T04:04:44.189Z,13.07
2022-09-03T04:05:44.181Z,13.09
2022-09-03T04:06:44.181Z,13.09
2022-09-03T04:07:44.179Z,13.10
2022-09-03T04:08:44.158Z,13.13
2022-09-03T04:09:44.135Z,13.14
2022-09-03T04:10:44.131Z,13.17
2022-09-03T04:11:44.139Z,13.21
2022-09-03T04:12:44.130Z,13.22
2022-09-03T04:13:44.099Z,13.22
2022-09-03T04:14:44.100Z,13.21
2022-09-03T04:15:44.076Z,13.21
2022-09-03T04:16:44.115Z,13.19
2022-09-03T04:17:44.081Z,13.17
2022-09-03T04:18:44.058Z,13.21
2022-09-03T04:19:44.036Z,13.22
2022-09-03T04:20:44.057Z,13.22
2022-09-03T04:21:44.023Z,13.22
2022-09-03T04:22:44.018Z,13.19
2022-09-03T04:23:43.988Z,13.19
2022-09-03T04:24:43.985Z,13.21
2022-09-03T04:25:43.984Z,13.22
2022-09-03T04:26:43.961Z,13.19
2022-09-03T04:27:43.966Z,13.17
2022-09-03T04:28:43.949Z,13.14
2022-09-03T04:29:43.924Z,13.14
2022-09-03T04:30:43.988Z,13.14
2022-09-03T04:31:43.912Z,13.16
2022-09-03T04:32:43.967Z,13.16
2022-09-03T04:33:44.148Z,13.19
2022-09-03T04:34:43.889Z,13.17
2022-09-03T04:35:43.859Z,13.16
2022-09-03T04:36:43.862Z,13.16
2022-09-03T04:37:43.865Z,13.13
2022-09-03T04:38:43.839Z,13.12
2022-09-03T04:39:43.956Z,13.04
2022-09-03T04:40:43.807Z,13.03
2022-09-03T04:41:43.804Z,13.01
2022-09-03T04:42:43.800Z,13.01
2022-09-03T04:43:43.803Z,12.98
2022-09-03T04:44:43.783Z,12.98
2022-09-03T04:45:43.785Z,12.98
2022-09-03T04:46:43.744Z,12.99
2022-09-03T04:47:43.746Z,13.01
2022-09-03T04:48:43.754Z,13.06
2022-09-03T04:49:43.723Z,13.04
2022-09-03T04:50:43.744Z,13.06
2022-09-03T04:51:43.701Z,13.07
2022-09-03T04:52:43.685Z,13.04
2022-09-03T04:53:43.694Z,13.06
2022-09-03T04:54:43.674Z,13.04
2022-09-03T04:55:43.660Z,13.01
2022-09-03T04:56:43.645Z,13.04
2022-09-03T04:57:43.637Z,13.04
2022-09-03T04:58:44.190Z,13.09
2022-09-03T04:59:43.619Z,13.09
2022-09-03T05:00:43.632Z,13.09
2022-09-03T05:01:43.593Z,13.09
2022-09-03T05:02:43.590Z,13.12
2022-09-03T05:03:43.610Z,13.13
2022-09-03T05:04:43.572Z,13.12
2022-09-03T05:05:43.561Z,13.14
2022-09-03T05:06:43.548Z,13.14
2022-09-03T05:07:43.554Z,13.12
2022-09-03T05:08:43.844Z,13.10
2022-09-03T05:09:43.516Z,13.07
2022-09-03T05:10:43.691Z,13.03
2022-09-03T05:11:43.526Z,13.06
2022-09-03T05:12:43.471Z,13.04
2022-09-03T05:13:43.660Z,13.06
2022-09-03T05:14:43.633Z,13.06
2022-09-03T05:15:43.599Z,13.12
2022-09-03T05:16:43.664Z,13.16
2022-09-03T05:17:43.675Z,13.17
2022-09-03T05:18:43.678Z,13.22
2022-09-03T05:19:43.452Z,13.24
2022-09-03T05:20:43.397Z,13.25
2022-09-03T05:21:43.393Z,13.27
2022-09-03T05:22:43.397Z,13.28
2022-09-03T05:23:43.681Z,13.29
2022-09-03T05:24:43.656Z,13.32
2022-09-03T05:25:43.608Z,13.29
2022-09-03T05:26:43.418Z,13.29
2022-09-03T05:27:43.628Z,13.32
2022-09-03T05:28:43.338Z,13.39
2022-09-03T05:29:43.494Z,13.43
2022-09-03T05:30:43.290Z,13.46
2022-09-03T05:31:43.447Z,13.48
2022-09-03T05:32:43.512Z,13.51
2022-09-03T05:33:43.273Z,13.55
2022-09-03T05:34:43.631Z,13.50
2022-09-03T05:35:43.526Z,13.44
2022-09-03T05:36:43.431Z,13.39
2022-09-03T05:37:43.593Z,13.36
2022-09-03T05:38:43.207Z,13.29
2022-09-03T05:39:43.265Z,13.27
2022-09-03T05:40:43.192Z,13.25
2022-09-03T05:41:43.181Z,13.27
2022-09-03T05:42:43.179Z,13.25
2022-09-03T05:43:43.155Z,13.25
2022-09-03T05:44:43.274Z,13.25
2022-09-03T05:45:43.183Z,13.27
2022-09-03T05:46:43.128Z,13.25
2022-09-03T05:47:43.151Z,13.24
2022-09-03T05:48:43.109Z,13.22
2022-09-03T05:49:43.098Z,13.22
2022-09-03T05:50:43.090Z,13.27
2022-09-03T05:51:43.177Z,13.27
2022-09-03T05:52:43.342Z,13.31
2022-09-03T05:53:43.075Z,13.35
2022-09-03T05:54:43.156Z,13.41
2022-09-03T05:55:43.043Z,13.43
2022-09-03T05:56:43.101Z,13.46
2022-09-03T05:57:43.102Z,13.48
2022-09-03T05:58:43.012Z,13.53
2022-09-03T05:59:43.071Z,13.62
2022-09-03T06:00:43.011Z,13.69
2022-09-03T06:01:45.798Z,13.75
2022-09-03T06:02:43.138Z,13.75
2022-09-03T06:03:43.144Z,13.76
2022-09-03T06:04:43.587Z,13.68
2022-09-03T06:05:43.029Z,13.65
2022-09-03T06:06:42.973Z,13.63
2022-09-03T06:07:42.958Z,13.66
2022-09-03T06:08:42.967Z,13.68
2022-09-03T06:09:42.957Z,13.72
2022-09-03T06:10:45.072Z,13.69
2022-09-03T06:11:43.143Z,13.69
2022-09-03T06:12:42.912Z,13.72
2022-09-03T06:13:42.897Z,13.75
2022-09-03T06:14:43.053Z,13.83
2022-09-03T06:15:42.909Z,13.84
2022-09-03T06:16:42.966Z,13.88
2022-09-03T06:17:42.922Z,13.88
2022-09-03T06:18:42.937Z,13.90
2022-09-03T06:19:42.892Z,13.98
2022-09-03T06:20:42.767Z,14.04
2022-09-03T06:21:42.821Z,14.06
2022-09-03T06:22:42.962Z,14.05
2022-09-03T06:23:46.519Z,14.04
2022-09-03T06:24:42.880Z,14.05
2022-09-03T06:25:42.779Z,14.06
2022-09-03T06:26:43.311Z,14.08
2022-09-03T06:27:42.725Z,14.09
2022-09-03T06:28:42.733Z,14.12
2022-09-03T06:29:42.748Z,14.17
2022-09-03T06:30:42.675Z,14.26
2022-09-03T06:31:42.835Z,14.31
2022-09-03T06:32:42.714Z,14.41
2022-09-03T06:33:42.715Z,14.52
2022-09-03T06:34:42.708Z,14.56
2022-09-03T06:35:43.183Z,14.60
2022-09-03T06:36:42.728Z,14.69
2022-09-03T06:37:42.628Z,14.75
2022-09-03T06:38:42.638Z,14.79
2022-09-03T06:39:42.764Z,14.75
2022-09-03T06:40:42.638Z,14.75
2022-09-03T06:41:42.597Z,14.78
2022-09-03T06:42:42.784Z,14.80
2022-09-03T06:43:42.728Z,14.83
2022-09-03T06:44:42.561Z,14.80
2022-09-03T06:45:42.649Z,14.78
2022-09-03T06:46:42.843Z,14.79
2022-09-03T06:47:42.564Z,14.83
2022-09-03T06:48:42.538Z,14.93
2022-09-03T06:49:42.515Z,14.97
2022-09-03T06:50:42.513Z,15.09
2022-09-03T06:51:42.504Z,15.16
2022-09-03T06:52:42.513Z,15.20
2022-09-03T06:53:42.503Z,15.28
2022-09-03T06:54:42.435Z,15.35
2022-09-03T06:55:42.425Z,15.43
2022-09-03T06:56:42.425Z,15.43
2022-09-03T06:57:42.476Z,15.46
2022-09-03T06:58:42.414Z,15.49
2022-09-03T06:59:42.542Z,15.56
2022-09-03T07:00:42.499Z,15.62
2022-09-03T07:01:44.031Z,15.67
2022-09-03T07:02:44.936Z,15.70
2022-09-03T07:03:42.388Z,15.71
2022-09-03T07:04:42.336Z,15.73
2022-09-03T07:05:42.397Z,15.73
2022-09-03T07:06:42.426Z,15.78
2022-09-03T07:07:42.333Z,15.89
2022-09-03T07:08:42.331Z,15.98
2022-09-03T07:09:46.389Z,15.98
2022-09-03T07:10:42.314Z,16.10
2022-09-03T07:11:42.339Z,16.06
2022-09-03T07:12:42.245Z,16.47
2022-09-03T07:13:42.267Z,16.55
2022-09-03T07:14:42.258Z,17.12
2022-09-03T07:15:42.260Z,17.53
2022-09-03T07:16:42.314Z,17.91
2022-09-03T07:17:42.210Z,18.20
2022-09-03T07:18:42.229Z,18.56
2022-09-03T07:19:42.189Z,18.64
2022-09-03T07:20:42.169Z,17.79
2022-09-03T07:21:45.299Z,17.25
2022-09-03T07:22:42.173Z,17.35
2022-09-03T07:23:42.192Z,18.09
2022-09-03T07:24:42.132Z,17.49
2022-09-03T07:25:42.160Z,17.15
2022-09-03T07:26:42.115Z,16.88
2022-09-03T07:27:42.110Z,16.73
2022-09-03T07:28:42.150Z,16.67
2022-09-03T07:29:42.102Z,17.09
2022-09-03T07:30:42.167Z,17.05
2022-09-03T07:31:42.174Z,16.91
2022-09-03T07:32:42.030Z,16.80
2022-09-03T07:33:42.104Z,16.62
2022-09-03T07:34:42.097Z,16.51
2022-09-03T07:35:42.079Z,16.47
2022-09-03T07:36:42.001Z,16.36
2022-09-03T07:37:42.089Z,16.32
2022-09-03T07:38:42.040Z,16.40
2022-09-03T07:39:42.018Z,16.40
2022-09-03T07:40:41.969Z,16.60
2022-09-03T07:41:41.928Z,16.57
2022-09-03T07:42:41.916Z,16.52
2022-09-03T07:43:41.941Z,16.51
2022-09-03T07:44:41.895Z,16.50
2022-09-03T07:45:41.892Z,16.52
2022-09-03T07:46:41.910Z,16.54
2022-09-03T07:47:41.904Z,16.54
2022-09-03T07:48:42.001Z,16.52
2022-09-03T07:49:41.847Z,16.51
2022-09-03T07:50:41.868Z,16.63
2022-09-03T07:51:42.133Z,16.70
2022-09-03T07:52:41.813Z,17.79
2022-09-03T07:53:41.881Z,17.96
2022-09-03T07:54:41.809Z,18.23
2022-09-03T07:55:41.787Z,18.56
2022-09-03T07:56:41.851Z,18.87
2022-09-03T07:57:41.953Z,18.96
2022-09-03T07:58:41.766Z,20.22
2022-09-03T07:59:41.746Z,21.03
2022-09-03T08:00:41.761Z,21.74
2022-09-03T08:01:41.957Z,22.39
2022-09-03T08:02:45.953Z,22.76
2022-09-03T08:03:41.755Z,22.46
2022-09-03T08:04:41.697Z,21.75
2022-09-03T08:05:41.704Z,20.73
2022-09-03T08:06:41.673Z,20.46
2022-09-03T08:07:41.753Z,20.23
2022-09-03T08:08:42.201Z,20.25
2022-09-03T08:09:41.653Z,19.46
2022-09-03T08:10:41.623Z,19.01
2022-09-03T08:11:41.647Z,19.27
2022-09-03T08:12:41.653Z,19.40
2022-09-03T08:13:41.609Z,19.42
2022-09-03T08:14:41.591Z,19.24
2022-09-03T08:15:41.597Z,18.91
2022-09-03T08:16:41.613Z,18.79
2022-09-03T08:17:41.559Z,18.75
2022-09-03T08:18:41.615Z,18.62
2022-09-03T08:19:41.589Z,18.38
2022-09-03T08:20:41.656Z,18.35
2022-09-03T08:21:41.671Z,18.51
2022-09-03T08:22:41.540Z,18.51
2022-09-03T08:23:41.668Z,18.39
2022-09-03T08:24:41.594Z,18.36
2022-09-03T08:25:41.481Z,18.34
2022-09-03T08:26:41.644Z,18.38
2022-09-03T08:27:41.462Z,18.69
2022-09-03T08:28:41.614Z,19.35
2022-09-03T08:29:41.500Z,19.38
2022-09-03T08:30:41.654Z,19.42
2022-09-03T08:31:41.485Z,20.00
2022-09-03T08:32:41.416Z,20.10
2022-09-03T08:33:41.628Z,19.85
2022-09-03T08:34:41.398Z,19.75
2022-09-03T08:35:41.395Z,19.61
2022-09-03T08:36:41.374Z,20.10
2022-09-03T08:37:41.653Z,20.41
2022-09-03T08:38:41.347Z,20.42
2022-09-03T08:39:41.340Z,20.73
2022-09-03T08:40:41.311Z,20.79
2022-09-03T08:41:41.317Z,20.68
2022-09-03T08:42:41.318Z,20.30
2022-09-03T08:43:41.289Z,20.13
2022-09-03T08:44:41.289Z,20.02
2022-09-03T08:45:41.296Z,19.87
2022-09-03T08:46:41.344Z,19.71
2022-09-03T08:47:41.617Z,19.65
2022-09-03T08:48:41.233Z,19.64
2022-09-03T08:49:41.289Z,19.65
2022-09-03T08:50:41.228Z,19.62
2022-09-03T08:51:41.233Z,19.57
2022-09-03T08:52:41.221Z,19.52
2022-09-03T08:53:41.253Z,19.46
2022-09-03T08:54:41.267Z,19.45
2022-09-03T08:55:41.203Z,19.45
2022-09-03T08:56:41.296Z,19.39
2022-09-03T08:57:41.228Z,19.30
2022-09-03T08:58:41.181Z,19.20
2022-09-03T08:59:41.167Z,19.17
2022-09-03T09:00:41.161Z,19.17
2022-09-03T09:01:41.216Z,19.17
2022-09-03T09:02:41.254Z,19.15
2022-09-03T09:03:41.124Z,19.13
2022-09-03T09:04:41.141Z,19.12
2022-09-03T09:05:41.145Z,19.13
2022-09-03T09:06:41.201Z,19.13
2022-09-03T09:07:41.134Z,19.15
2022-09-03T09:08:41.073Z,19.13
2022-09-03T09:09:41.079Z,19.17
2022-09-03T09:10:41.171Z,19.21
2022-09-03T09:11:41.047Z,19.23
2022-09-03T09:12:45.912Z,19.21
2022-09-03T09:13:40.989Z,19.24
2022-09-03T09:14:40.980Z,19.25
2022-09-03T09:15:41.024Z,19.27
2022-09-03T09:16:40.971Z,19.27
2022-09-03T09:17:40.942Z,19.28
2022-09-03T09:18:40.931Z,19.28
2022-09-03T09:19:40.957Z,19.32
2022-09-03T09:20:40.922Z,19.34
2022-09-03T09:21:40.907Z,19.38
2022-09-03T09:22:40.913Z,19.39
2022-09-03T09:23:40.941Z,19.40
2022-09-03T09:24:40.924Z,19.43
2022-09-03T09:25:40.900Z,19.43
2022-09-03T09:26:40.962Z,19.49
2022-09-03T09:27:40.895Z,19.49
2022-09-03T09:28:40.875Z,19.50
2022-09-03T09:29:40.832Z,19.50
2022-09-03T09:30:40.858Z,19.58
2022-09-03T09:31:41.876Z,19.64
2022-09-03T09:32:41.065Z,19.76
2022-09-03T09:33:40.800Z,19.80
2022-09-03T09:34:40.935Z,19.83
2022-09-03T09:35:40.777Z,19.85
2022-09-03T09:36:40.751Z,19.85
2022-09-03T09:37:40.818Z,19.83
2022-09-03T09:38:40.738Z,19.82
2022-09-03T09:39:40.724Z,19.82
2022-09-03T09:40:44.722Z,19.80
2022-09-03T09:41:40.912Z,19.76
2022-09-03T09:42:40.712Z,19.79
2022-09-03T09:43:40.671Z,19.76
2022-09-03T09:44:40.662Z,19.75
2022-09-03T09:45:40.652Z,19.75
2022-09-03T09:46:40.746Z,19.75
2022-09-03T09:47:40.624Z,19.78
2022-09-03T09:48:40.641Z,19.78
2022-09-03T09:49:40.603Z,19.83
2022-09-03T09:50:40.605Z,19.87
2022-09-03T09:51:40.593Z,19.90
2022-09-03T09:52:40.575Z,19.94
2022-09-03T09:53:40.573Z,19.98
2022-09-03T09:54:40.572Z,20.00
2022-09-03T09:55:40.543Z,20.00
2022-09-03T09:56:40.561Z,20.02
2022-09-03T09:57:40.554Z,20.04
2022-09-03T09:58:40.517Z,20.07
2022-09-03T09:59:40.521Z,20.10
2022-09-03T10:00:40.515Z,20.23
2022-09-03T10:01:40.790Z,20.30
2022-09-03T10:02:40.669Z,20.34
2022-09-03T10:03:40.481Z,20.35
2022-09-03T10:04:40.463Z,20.37
2022-09-03T10:05:40.441Z,20.33
2022-09-03T10:06:40.441Z,20.27
2022-09-03T10:07:40.452Z,20.23
2022-09-03T10:08:40.409Z,20.22
2022-09-03T10:09:40.405Z,20.23
2022-09-03T10:10:40.428Z,20.23
2022-09-03T10:11:40.414Z,20.25
2022-09-03T10:12:40.373Z,20.26
2022-09-03T10:13:40.432Z,20.30
2022-09-03T10:14:40.348Z,20.34
2022-09-03T10:15:40.406Z,20.35
2022-09-03T10:16:40.360Z,20.38
2022-09-03T10:17:40.331Z,20.42
2022-09-03T10:18:40.315Z,20.44
2022-09-03T10:19:40.294Z,20.48
2022-09-03T10:20:40.320Z,20.53
2022-09-03T10:21:40.300Z,20.54
2022-09-03T10:22:40.262Z,20.57
2022-09-03T10:23:40.390Z,20.57
2022-09-03T10:24:40.253Z,20.61
2022-09-03T10:25:40.235Z,20.64
2022-09-03T10:26:40.243Z,20.66
2022-09-03T10:27:41.174Z,20.72
2022-09-03T10:28:40.201Z,20.72
2022-09-03T10:29:40.188Z,20.76
2022-09-03T10:30:40.244Z,20.81
2022-09-03T10:31:40.179Z,20.76
2022-09-03T10:32:41.915Z,20.76
2022-09-03T10:33:40.162Z,20.81
2022-09-03T10:34:40.142Z,20.88
2022-09-03T10:35:40.128Z,20.93
2022-09-03T10:36:40.143Z,20.88
2022-09-03T10:37:40.114Z,20.81
2022-09-03T10:38:40.142Z,20.78
2022-09-03T10:39:43.063Z,20.71
2022-09-03T10:40:40.082Z,20.68
2022-09-03T10:41:40.109Z,20.68
2022-09-03T10:42:40.069Z,20.66
2022-09-03T10:43:40.106Z,20.68
2022-09-03T10:44:40.041Z,20.66
2022-09-03T10:45:40.041Z,20.63
2022-09-03T10:46:40.077Z,20.61
2022-09-03T10:47:40.018Z,20.57
2022-09-03T10:48:39.996Z,20.53
2022-09-03T10:49:39.983Z,20.48
2022-09-03T10:50:39.996Z,20.48
2022-09-03T10:51:39.964Z,20.46
2022-09-03T10:52:39.965Z,20.44
2022-09-03T10:53:39.997Z,20.48
2022-09-03T10:54:39.945Z,20.51
2022-09-03T10:55:39.965Z,20.54
2022-09-03T10:56:39.932Z,20.60
2022-09-03T10:57:39.974Z,20.63
2022-09-03T10:58:39.897Z,20.61
2022-09-03T10:59:39.888Z,20.73
2022-09-03T11:00:39.888Z,20.78
2022-09-03T11:01:39.945Z,20.79
2022-09-03T11:02:39.947Z,20.90
2022-09-03T11:03:39.862Z,21.03
2022-09-03T11:04:39.859Z,21.15
2022-09-03T11:05:39.928Z,21.28
2022-09-03T11:06:39.875Z,21.26
2022-09-03T11:07:39.812Z,21.22
2022-09-03T11:08:39.796Z,21.15
2022-09-03T11:09:39.799Z,21.13
2022-09-03T11:10:39.812Z,21.09
2022-09-03T11:11:39.898Z,21.03
2022-09-03T11:12:39.751Z,21.06
2022-09-03T11:13:39.746Z,21.12
2022-09-03T11:14:39.798Z,21.21
2022-09-03T11:15:39.874Z,21.19
2022-09-03T11:16:39.787Z,21.13
2022-09-03T11:17:39.713Z,21.05
2022-09-03T11:18:39.701Z,21.01
2022-09-03T11:19:39.707Z,20.98
2022-09-03T11:20:39.715Z,21.00
2022-09-03T11:21:39.657Z,20.94
2022-09-03T11:22:39.706Z,20.91
2022-09-03T11:23:39.696Z,20.88
2022-09-03T11:24:39.679Z,20.90
2022-09-03T11:25:39.679Z,20.88
2022-09-03T11:26:39.620Z,20.94
2022-09-03T11:27:39.649Z,21.09
2022-09-03T11:28:39.664Z,21.00
2022-09-03T11:29:39.597Z,20.97
2022-09-03T11:30:39.743Z,21.21
2022-09-03T11:31:39.563Z,21.42
2022-09-03T11:32:39.697Z,21.52
2022-09-03T11:33:39.536Z,21.53
2022-09-03T11:34:39.524Z,21.38
2022-09-03T11:35:39.577Z,21.33
2022-09-03T11:36:40.504Z,21.38
2022-09-03T11:37:39.486Z,21.31
2022-09-03T11:38:39.635Z,21.27
2022-09-03T11:39:39.778Z,21.22
2022-09-03T11:40:39.476Z,21.24
2022-09-03T11:41:39.628Z,21.19
2022-09-03T11:42:39.652Z,21.12
2022-09-03T11:43:39.420Z,21.12
2022-09-03T11:44:47.694Z,21.09
2022-09-03T11:45:39.524Z,21.05
2022-09-03T11:46:39.425Z,21.00
2022-09-03T11:47:39.489Z,20.98
2022-09-03T11:48:39.412Z,20.98
2022-09-03T11:49:39.361Z,21.12
2022-09-03T11:50:39.757Z,21.08
2022-09-03T11:51:39.677Z,21.05
2022-09-03T11:52:39.372Z,21.06
2022-09-03T11:53:39.429Z,21.11
2022-09-03T11:54:39.329Z,21.31
2022-09-03T11:55:43.760Z,21.56
2022-09-03T11:56:39.535Z,21.45
2022-09-03T11:57:39.334Z,21.37
2022-09-03T11:58:39.285Z,21.34
2022-09-03T11:59:39.585Z,21.36
2022-09-03T12:00:39.536Z,21.37
2022-09-03T12:01:39.241Z,21.38
2022-09-03T12:02:39.487Z,21.31
2022-09-03T12:03:39.213Z,21.26
2022-09-03T12:04:39.351Z,21.22
2022-09-03T12:05:39.296Z,21.19
2022-09-03T12:06:39.208Z,21.19
2022-09-03T12:07:39.169Z,21.19
2022-09-03T12:08:39.170Z,21.19
2022-09-03T12:09:39.168Z,21.18
2022-09-03T12:10:39.168Z,21.13
2022-09-03T12:11:39.135Z,21.13
2022-09-03T12:12:39.138Z,21.12
2022-09-03T12:13:39.110Z,21.21
2022-09-03T12:14:39.106Z,21.28
2022-09-03T12:15:39.278Z,21.38
2022-09-03T12:16:39.097Z,21.48
2022-09-03T12:17:39.080Z,21.73
2022-09-03T12:18:39.070Z,21.81
2022-09-03T12:19:39.063Z,21.74
2022-09-03T12:20:39.069Z,21.79
2022-09-03T12:21:39.058Z,21.79
2022-09-03T12:22:39.040Z,21.81
2022-09-03T12:23:39.007Z,21.75
2022-09-03T12:24:39.002Z,21.75
2022-09-03T12:25:39.011Z,21.71
2022-09-03T12:26:39.058Z,21.70
2022-09-03T12:27:38.993Z,21.70
2022-09-03T12:28:43.861Z,21.73
2022-09-03T12:29:38.955Z,21.68
2022-09-03T12:30:38.985Z,21.61
2022-09-03T12:31:42.593Z,21.64
2022-09-03T12:32:39.035Z,21.55
2022-09-03T12:33:38.981Z,21.56
2022-09-03T12:34:38.903Z,21.81
2022-09-03T12:36:38.887Z,22.12
2022-09-03T12:39:07.763Z,22.31
2022-09-03T12:40:09.081Z,22.42
2022-09-03T12:41:23.507Z,22.46
2022-09-03T12:41:38.905Z,22.48
2022-09-03T12:42:38.819Z,22.59
2022-09-03T12:43:39.597Z,22.49
2022-09-03T12:44:38.904Z,22.39
2022-09-03T12:46:38.813Z,22.26
2022-09-03T12:47:39.842Z,22.17
2022-09-03T12:48:43.519Z,22.14
2022-09-03T12:49:38.757Z,22.12
2022-09-03T12:50:42.526Z,22.09
2022-09-03T12:51:57.572Z,22.02
2022-09-03T12:52:38.740Z,21.98
2022-09-03T12:53:38.700Z,21.91
2022-09-03T12:54:38.761Z,21.94
2022-09-03T12:55:38.744Z,21.94